sensor_id;sensor_type;location;lat;lon;timestamp;pressure;altitude;pressure_sealevel;temperature;humidity
71970;BME280;59838;52.152;5.436;2023-07-13T00:01:48;101426.88;;;16.18;88.51
71970;BME280;59838;52.152;5.436;2023-07-13T00:04:17;101431.91;;;16.13;88.88
71970;BME280;59838;52.152;5.436;2023-07-13T00:06:46;101426.69;;;16.06;89.33
71970;BME280;59838;52.152;5.436;2023-07-13T00:09:13;101429.69;;;16.03;89.48
71970;BME280;59838;52.152;5.436;2023-07-13T00:11:41;101430.13;;;16.00;89.84
71970;BME280;59838;52.152;5.436;2023-07-13T00:14:08;101433.38;;;15.96;90.00
71970;BME280;59838;52.152;5.436;2023-07-13T00:16:36;101437.19;;;15.93;90.47
71970;BME280;59838;52.152;5.436;2023-07-13T00:19:04;101434.75;;;15.92;90.47
71970;BME280;59838;52.152;5.436;2023-07-13T00:21:31;101435.16;;;15.88;90.36
71970;BME280;59838;52.152;5.436;2023-07-13T00:23:58;101433.56;;;15.87;90.49
71970;BME280;59838;52.152;5.436;2023-07-13T00:26:24;101433.97;;;15.84;90.87
71970;BME280;59838;52.152;5.436;2023-07-13T00:28:51;101429.72;;;15.83;90.95
71970;BME280;59838;52.152;5.436;2023-07-13T00:31:17;101430.13;;;15.80;91.16
71970;BME280;59838;52.152;5.436;2023-07-13T00:33:44;101432.97;;;15.79;91.28
71970;BME280;59838;52.152;5.436;2023-07-13T00:36:11;101430.53;;;15.77;91.19
71970;BME280;59838;52.152;5.436;2023-07-13T00:38:38;101434.19;;;15.76;91.14
71970;BME280;59838;52.152;5.436;2023-07-13T00:41:04;101430.91;;;15.74;91.05
71970;BME280;59838;52.152;5.436;2023-07-13T00:43:31;101430.31;;;15.72;91.02
71970;BME280;59838;52.152;5.436;2023-07-13T00:48:33;101429.91;;;15.68;90.91
71970;BME280;59838;52.152;5.436;2023-07-13T00:51:00;101428.50;;;15.66;90.76
71970;BME280;59838;52.152;5.436;2023-07-13T00:53:29;101433.13;;;15.64;90.74
71970;BME280;59838;52.152;5.436;2023-07-13T00:55:59;101435.94;;;15.62;90.81
71970;BME280;59838;52.152;5.436;2023-07-13T00:58:26;101430.72;;;15.62;90.63
71970;BME280;59838;52.152;5.436;2023-07-13T01:00:53;101433.72;;;15.59;90.61
71970;BME280;59838;52.152;5.436;2023-07-13T01:03:20;101430.91;;;15.54;90.99
71970;BME280;59838;52.152;5.436;2023-07-13T01:05:48;101426.06;;;15.51;91.22
71970;BME280;59838;52.152;5.436;2023-07-13T01:08:16;101428.28;;;15.47;90.87
71970;BME280;59838;52.152;5.436;2023-07-13T01:10:56;101425.88;;;15.46;91.11
71970;BME280;59838;52.152;5.436;2023-07-13T01:13:23;101429.69;;;15.43;90.91
71970;BME280;59838;52.152;5.436;2023-07-13T01:15:51;101428.50;;;15.39;91.67
71970;BME280;59838;52.152;5.436;2023-07-13T01:18:22;101435.72;;;15.37;92.13
71970;BME280;59838;52.152;5.436;2023-07-13T01:23:18;101447.22;;;15.29;92.25
71970;BME280;59838;52.152;5.436;2023-07-13T01:25:45;101449.38;;;15.26;92.69
71970;BME280;59838;52.152;5.436;2023-07-13T01:28:12;101442.75;;;15.23;93.00
71970;BME280;59838;52.152;5.436;2023-07-13T01:30:39;101451.00;;;15.20;93.36
71970;BME280;59838;52.152;5.436;2023-07-13T01:33:07;101446.75;;;15.19;93.63
71970;BME280;59838;52.152;5.436;2023-07-13T01:35:34;101447.38;;;15.14;93.80
71970;BME280;59838;52.152;5.436;2023-07-13T01:38:00;101440.91;;;15.10;94.21
71970;BME280;59838;52.152;5.436;2023-07-13T01:40:28;101442.94;;;15.08;94.10
71970;BME280;59838;52.152;5.436;2023-07-13T01:42:55;101443.31;;;15.05;94.49
71970;BME280;59838;52.152;5.436;2023-07-13T01:45:22;101440.31;;;15.02;94.35
71970;BME280;59838;52.152;5.436;2023-07-13T01:47:48;101443.91;;;15.01;94.80
71970;BME280;59838;52.152;5.436;2023-07-13T01:50:15;101442.66;;;14.96;94.67
71970;BME280;59838;52.152;5.436;2023-07-13T01:52:42;101446.50;;;14.94;95.22
71970;BME280;59838;52.152;5.436;2023-07-13T01:55:08;101455.72;;;14.90;95.31
71970;BME280;59838;52.152;5.436;2023-07-13T01:57:35;101445.84;;;14.85;95.49
71970;BME280;59838;52.152;5.436;2023-07-13T02:00:06;101453.28;;;14.81;95.92
71970;BME280;59838;52.152;5.436;2023-07-13T02:02:33;101449.47;;;14.77;96.36
71970;BME280;59838;52.152;5.436;2023-07-13T02:05:00;101446.41;;;14.74;96.44
71970;BME280;59838;52.152;5.436;2023-07-13T02:07:27;101447.63;;;14.71;96.57
71970;BME280;59838;52.152;5.436;2023-07-13T02:09:53;101455.84;;;14.68;96.62
71970;BME280;59838;52.152;5.436;2023-07-13T02:12:20;101452.63;;;14.66;96.75
71970;BME280;59838;52.152;5.436;2023-07-13T02:14:46;101458.25;;;14.63;97.05
71970;BME280;59838;52.152;5.436;2023-07-13T02:17:13;101466.28;;;14.61;97.57
71970;BME280;59838;52.152;5.436;2023-07-13T02:19:39;101468.47;;;14.58;97.28
71970;BME280;59838;52.152;5.436;2023-07-13T02:22:06;101468.00;;;14.54;97.70
71970;BME280;59838;52.152;5.436;2023-07-13T02:24:32;101464.19;;;14.50;97.91
71970;BME280;59838;52.152;5.436;2023-07-13T02:26:59;101456.72;;;14.47;98.32
71970;BME280;59838;52.152;5.436;2023-07-13T02:29:26;101465.56;;;14.46;98.54
71970;BME280;59838;52.152;5.436;2023-07-13T02:31:52;101463.97;;;14.45;98.81
71970;BME280;59838;52.152;5.436;2023-07-13T02:34:19;101461.53;;;14.43;98.94
71970;BME280;59838;52.152;5.436;2023-07-13T02:36:45;101463.50;;;14.41;99.20
71970;BME280;59838;52.152;5.436;2023-07-13T02:39:13;101463.94;;;14.38;99.63
71970;BME280;59838;52.152;5.436;2023-07-13T02:41:39;101464.31;;;14.35;99.91
71970;BME280;59838;52.152;5.436;2023-07-13T02:44:06;101469.91;;;14.32;100.00
71970;BME280;59838;52.152;5.436;2023-07-13T02:46:36;101465.06;;;14.29;100.00
71970;BME280;59838;52.152;5.436;2023-07-13T02:49:03;101466.06;;;14.28;100.00
71970;BME280;59838;52.152;5.436;2023-07-13T02:51:33;101465.44;;;14.26;100.00
71970;BME280;59838;52.152;5.436;2023-07-13T02:54:01;101458.59;;;14.25;100.00
71970;BME280;59838;52.152;5.436;2023-07-13T02:56:30;101463.22;;;14.23;100.00
71970;BME280;59838;52.152;5.436;2023-07-13T02:58:57;101464.19;;;14.22;100.00
71970;BME280;59838;52.152;5.436;2023-07-13T03:01:24;101474.03;;;14.20;100.00
71970;BME280;59838;52.152;5.436;2023-07-13T03:03:52;101465.00;;;14.16;100.00
71970;BME280;59838;52.152;5.436;2023-07-13T03:06:19;101471.00;;;14.16;100.00
71970;BME280;59838;52.152;5.436;2023-07-13T03:08:47;101472.19;;;14.14;100.00
71970;BME280;59838;52.152;5.436;2023-07-13T03:11:19;101476.81;;;14.12;100.00
71970;BME280;59838;52.152;5.436;2023-07-13T03:13:46;101479.59;;;14.10;100.00
71970;BME280;59838;52.152;5.436;2023-07-13T03:16:13;101480.59;;;14.09;100.00
71970;BME280;59838;52.152;5.436;2023-07-13T03:18:46;101484.03;;;14.10;100.00
71970;BME280;59838;52.152;5.436;2023-07-13T03:21:12;101472.34;;;14.05;100.00
71970;BME280;59838;52.152;5.436;2023-07-13T03:23:39;101474.94;;;14.05;100.00
71970;BME280;59838;52.152;5.436;2023-07-13T03:26:15;101478.56;;;14.04;100.00
71970;BME280;59838;52.152;5.436;2023-07-13T03:28:43;101485.59;;;14.04;100.00
71970;BME280;59838;52.152;5.436;2023-07-13T03:31:16;101493.59;;;14.02;100.00
71970;BME280;59838;52.152;5.436;2023-07-13T03:33:43;101491.81;;;14.03;100.00
71970;BME280;59838;52.152;5.436;2023-07-13T03:36:14;101491.19;;;14.01;100.00
71970;BME280;59838;52.152;5.436;2023-07-13T03:38:42;101493.78;;;14.01;100.00
71970;BME280;59838;52.152;5.436;2023-07-13T03:41:09;101498.84;;;14.02;100.00
71970;BME280;59838;52.152;5.436;2023-07-13T03:43:35;101500.47;;;14.03;100.00
71970;BME280;59838;52.152;5.436;2023-07-13T03:46:02;101504.69;;;14.04;100.00
71970;BME280;59838;52.152;5.436;2023-07-13T03:48:28;101501.91;;;14.06;100.00
71970;BME280;59838;52.152;5.436;2023-07-13T03:50:55;101504.09;;;14.09;100.00
71970;BME280;59838;52.152;5.436;2023-07-13T03:53:21;101500.31;;;14.12;100.00
71970;BME280;59838;52.152;5.436;2023-07-13T03:55:48;101506.38;;;14.19;100.00
71970;BME280;59838;52.152;5.436;2023-07-13T03:58:30;101513.28;;;14.26;100.00
71970;BME280;59838;52.152;5.436;2023-07-13T04:00:57;101514.97;;;14.34;100.00
71970;BME280;59838;52.152;5.436;2023-07-13T04:03:25;101514.19;;;14.40;100.00
71970;BME280;59838;52.152;5.436;2023-07-13T04:05:51;101515.03;;;14.48;100.00
71970;BME280;59838;52.152;5.436;2023-07-13T04:08:18;101527.97;;;14.56;100.00
71970;BME280;59838;52.152;5.436;2023-07-13T04:10:44;101523.63;;;14.63;100.00
71970;BME280;59838;52.152;5.436;2023-07-13T04:13:11;101524.06;;;14.73;100.00
71970;BME280;59838;52.152;5.436;2023-07-13T04:15:38;101526.16;;;14.85;100.00
71970;BME280;59838;52.152;5.436;2023-07-13T04:18:05;101518.53;;;14.96;100.00
71970;BME280;59838;52.152;5.436;2023-07-13T04:20:31;101519.44;;;15.17;100.00
71970;BME280;59838;52.152;5.436;2023-07-13T04:22:58;101528.19;;;15.38;100.00
71970;BME280;59838;52.152;5.436;2023-07-13T04:25:25;101525.41;;;15.59;100.00
71970;BME280;59838;52.152;5.436;2023-07-13T04:27:53;101525.66;;;16.11;99.71
71970;BME280;59838;52.152;5.436;2023-07-13T04:30:20;101528.69;;;16.41;96.60
71970;BME280;59838;52.152;5.436;2023-07-13T04:32:47;101532.69;;;16.57;95.43
71970;BME280;59838;52.152;5.436;2023-07-13T04:35:13;101527.97;;;16.79;94.13
71970;BME280;59838;52.152;5.436;2023-07-13T04:37:40;101528.88;;;17.12;91.93
71970;BME280;59838;52.152;5.436;2023-07-13T04:40:07;101528.91;;;17.05;90.75
71970;BME280;59838;52.152;5.436;2023-07-13T04:42:38;101525.56;;;16.71;92.07
71970;BME280;59838;52.152;5.436;2023-07-13T04:45:06;101533.66;;;16.70;92.57
71970;BME280;59838;52.152;5.436;2023-07-13T04:47:33;101523.63;;;17.18;91.24
71970;BME280;59838;52.152;5.436;2023-07-13T04:49:59;101526.78;;;17.66;89.54
71970;BME280;59838;52.152;5.436;2023-07-13T04:52:26;101525.31;;;18.27;86.99
71970;BME280;59838;52.152;5.436;2023-07-13T04:54:52;101531.63;;;18.81;83.57
71970;BME280;59838;52.152;5.436;2023-07-13T04:57:19;101525.31;;;18.27;82.91
71970;BME280;59838;52.152;5.436;2023-07-13T04:59:45;101538.56;;;17.57;86.06
71970;BME280;59838;52.152;5.436;2023-07-13T05:02:11;101535.72;;;17.20;88.64
71970;BME280;59838;52.152;5.436;2023-07-13T05:04:38;101530.38;;;17.01;90.24
71970;BME280;59838;52.152;5.436;2023-07-13T05:07:05;101527.16;;;16.92;91.24
71970;BME280;59838;52.152;5.436;2023-07-13T05:09:32;101535.66;;;16.94;92.45
71970;BME280;59838;52.152;5.436;2023-07-13T05:11:59;101539.41;;;17.50;91.80
71970;BME280;59838;52.152;5.436;2023-07-13T05:14:25;101534.22;;;18.26;88.92
71970;BME280;59838;52.152;5.436;2023-07-13T05:16:52;101536.94;;;19.00;84.68
71970;BME280;59838;52.152;5.436;2023-07-13T05:19:18;101536.94;;;19.00;83.64
71970;BME280;59838;52.152;5.436;2023-07-13T05:21:44;101535.75;;;18.96;83.07
71970;BME280;59838;52.152;5.436;2023-07-13T05:24:11;101543.69;;;18.71;83.99
71970;BME280;59838;52.152;5.436;2023-07-13T05:26:51;101549.47;;;18.79;84.08
71970;BME280;59838;52.152;5.436;2023-07-13T05:29:17;101553.34;;;18.77;83.98
71970;BME280;59838;52.152;5.436;2023-07-13T05:31:44;101548.88;;;18.40;85.26
71970;BME280;59838;52.152;5.436;2023-07-13T05:34:10;101555.53;;;18.18;86.25
71970;BME280;59838;52.152;5.436;2023-07-13T05:36:37;101564.16;;;18.25;87.60
71970;BME280;59838;52.152;5.436;2023-07-13T05:39:04;101557.38;;;18.79;86.58
71970;BME280;59838;52.152;5.436;2023-07-13T05:41:30;101558.28;;;19.41;82.66
71970;BME280;59838;52.152;5.436;2023-07-13T05:43:57;101563.44;;;19.17;82.59
71970;BME280;59838;52.152;5.436;2023-07-13T05:46:24;101565.94;;;18.56;84.55
71970;BME280;59838;52.152;5.436;2023-07-13T05:48:50;101573.81;;;18.06;87.43
71970;BME280;59838;52.152;5.436;2023-07-13T05:51:17;101572.34;;;17.92;88.63
71970;BME280;59838;52.152;5.436;2023-07-13T05:53:43;101577.38;;;17.86;90.26
71970;BME280;59838;52.152;5.436;2023-07-13T05:56:10;101581.66;;;17.87;90.35
71970;BME280;59838;52.152;5.436;2023-07-13T05:58:37;101579.50;;;17.71;91.10
71970;BME280;59838;52.152;5.436;2023-07-13T06:01:06;101593.88;;;17.68;91.84
71970;BME280;59838;52.152;5.436;2023-07-13T06:03:33;101585.41;;;17.66;91.77
71970;BME280;59838;52.152;5.436;2023-07-13T06:06:00;101590.84;;;17.65;92.25
71970;BME280;59838;52.152;5.436;2023-07-13T06:08:27;101593.44;;;17.71;92.67
71970;BME280;59838;52.152;5.436;2023-07-13T06:10:54;101599.69;;;17.77;93.18
71970;BME280;59838;52.152;5.436;2023-07-13T06:13:20;101600.88;;;18.13;92.05
71970;BME280;59838;52.152;5.436;2023-07-13T06:15:50;101609.72;;;18.19;91.40
71970;BME280;59838;52.152;5.436;2023-07-13T06:18:16;101605.44;;;17.99;91.62
71970;BME280;59838;52.152;5.436;2023-07-13T06:20:43;101607.13;;;17.87;92.27
71970;BME280;59838;52.152;5.436;2023-07-13T06:23:09;101603.06;;;17.91;92.69
71970;BME280;59838;52.152;5.436;2023-07-13T06:25:36;101606.72;;;17.90;92.35
71970;BME280;59838;52.152;5.436;2023-07-13T06:28:02;101614.97;;;17.94;92.94
71970;BME280;59838;52.152;5.436;2023-07-13T06:30:29;101615.63;;;17.89;92.67
71970;BME280;59838;52.152;5.436;2023-07-13T06:32:55;101615.47;;;17.77;93.23
71970;BME280;59838;52.152;5.436;2023-07-13T06:35:22;101620.94;;;17.76;93.21
71970;BME280;59838;52.152;5.436;2023-07-13T06:37:49;101618.69;;;17.79;93.50
71970;BME280;59838;52.152;5.436;2023-07-13T06:40:15;101617.44;;;17.88;93.15
71970;BME280;59838;52.152;5.436;2023-07-13T06:42:42;101628.28;;;17.99;93.72
71970;BME280;59838;52.152;5.436;2023-07-13T06:45:08;101629.03;;;18.06;93.20
71970;BME280;59838;52.152;5.436;2023-07-13T06:47:35;101621.97;;;18.06;92.76
71970;BME280;59838;52.152;5.436;2023-07-13T06:50:02;101620.91;;;18.14;92.24
71970;BME280;59838;52.152;5.436;2023-07-13T06:52:29;101621.59;;;18.28;92.08
71970;BME280;59838;52.152;5.436;2023-07-13T06:54:55;101613.34;;;18.24;91.67
71970;BME280;59838;52.152;5.436;2023-07-13T06:57:22;101623.06;;;18.24;91.63
71970;BME280;59838;52.152;5.436;2023-07-13T06:59:49;101615.34;;;18.29;91.11
71970;BME280;59838;52.152;5.436;2023-07-13T07:02:15;101626.16;;;18.39;90.90
71970;BME280;59838;52.152;5.436;2023-07-13T07:04:42;101623.41;;;18.53;90.43
71970;BME280;59838;52.152;5.436;2023-07-13T07:07:09;101630.81;;;18.88;90.41
71970;BME280;59838;52.152;5.436;2023-07-13T07:09:35;101630.06;;;20.62;85.74
71970;BME280;59838;52.152;5.436;2023-07-13T07:12:03;101623.41;;;20.60;80.98
71970;BME280;59838;52.152;5.436;2023-07-13T07:14:30;101645.31;;;19.83;83.16
71970;BME280;59838;52.152;5.436;2023-07-13T07:16:58;101643.66;;;19.51;84.72
71970;BME280;59838;52.152;5.436;2023-07-13T07:19:27;101646.75;;;19.48;86.11
71970;BME280;59838;52.152;5.436;2023-07-13T07:21:54;101648.22;;;19.44;86.98
71970;BME280;59838;52.152;5.436;2023-07-13T07:24:20;101646.06;;;19.53;85.77
71970;BME280;59838;52.152;5.436;2023-07-13T07:26:47;101647.75;;;19.84;85.70
71970;BME280;59838;52.152;5.436;2023-07-13T07:29:16;101654.66;;;19.97;84.87
71970;BME280;59838;52.152;5.436;2023-07-13T07:31:46;101661.44;;;19.56;85.29
71970;BME280;59838;52.152;5.436;2023-07-13T07:34:15;101661.78;;;19.29;87.79
71970;BME280;59838;52.152;5.436;2023-07-13T07:36:42;101666.53;;;19.21;89.52
71970;BME280;59838;52.152;5.436;2023-07-13T07:39:11;101657.91;;;19.13;90.86
71970;BME280;59838;52.152;5.436;2023-07-13T07:41:38;101667.31;;;19.03;91.99
71970;BME280;59838;52.152;5.436;2023-07-13T07:44:08;101660.06;;;18.98;93.62
71970;BME280;59838;52.152;5.436;2023-07-13T07:46:36;101657.09;;;18.94;91.39
71970;BME280;59838;52.152;5.436;2023-07-13T07:49:03;101655.25;;;18.95;93.71
71970;BME280;59838;52.152;5.436;2023-07-13T07:51:29;101646.91;;;18.98;94.08
71970;BME280;59838;52.152;5.436;2023-07-13T07:53:56;101639.69;;;19.12;95.25
71970;BME280;59838;52.152;5.436;2023-07-13T07:56:22;101641.81;;;19.22;93.81
71970;BME280;59838;52.152;5.436;2023-07-13T07:58:52;101645.16;;;19.29;93.11
71970;BME280;59838;52.152;5.436;2023-07-13T08:01:22;101641.03;;;19.51;95.18
71970;BME280;59838;52.152;5.436;2023-07-13T08:03:52;101645.28;;;20.13;91.32
71970;BME280;59838;52.152;5.436;2023-07-13T08:06:21;101642.16;;;20.70;88.70
71970;BME280;59838;52.152;5.436;2023-07-13T08:08:51;101648.09;;;20.89;85.07
71970;BME280;59838;52.152;5.436;2023-07-13T08:11:17;101647.03;;;20.43;85.53
71970;BME280;59838;52.152;5.436;2023-07-13T08:13:47;101651.72;;;20.17;89.19
71970;BME280;59838;52.152;5.436;2023-07-13T08:16:16;101647.59;;;20.57;88.93
71970;BME280;59838;52.152;5.436;2023-07-13T08:18:43;101644.06;;;20.75;89.23
71970;BME280;59838;52.152;5.436;2023-07-13T08:21:09;101642.88;;;21.18;86.15
71970;BME280;59838;52.152;5.436;2023-07-13T08:23:36;101635.13;;;21.40;84.73
71970;BME280;59838;52.152;5.436;2023-07-13T08:26:03;101635.19;;;21.57;83.30
71970;BME280;59838;52.152;5.436;2023-07-13T08:28:31;101646.91;;;21.61;81.71
71970;BME280;59838;52.152;5.436;2023-07-13T08:31:03;101636.53;;;21.88;81.80
71970;BME280;59838;52.152;5.436;2023-07-13T08:33:30;101638.38;;;21.88;80.01
71970;BME280;59838;52.152;5.436;2023-07-13T08:35:56;101641.16;;;21.52;80.00
71970;BME280;59838;52.152;5.436;2023-07-13T08:38:23;101636.47;;;21.43;77.96
71970;BME280;59838;52.152;5.436;2023-07-13T08:40:55;101629.56;;;21.53;79.57
71970;BME280;59838;52.152;5.436;2023-07-13T08:43:28;101629.97;;;21.62;76.34
71970;BME280;59838;52.152;5.436;2023-07-13T08:46:18;101639.16;;;21.71;77.42
71970;BME280;59838;52.152;5.436;2023-07-13T08:48:52;101632.19;;;21.82;77.68
71970;BME280;59838;52.152;5.436;2023-07-13T08:51:32;101643.38;;;22.01;74.31
71970;BME280;59838;52.152;5.436;2023-07-13T08:54:05;101654.22;;;21.71;74.67
71970;BME280;59838;52.152;5.436;2023-07-13T08:56:36;101663.75;;;21.31;75.62
71970;BME280;59838;52.152;5.436;2023-07-13T08:59:14;101654.72;;;21.04;75.90
71970;BME280;59838;52.152;5.436;2023-07-13T09:04:58;101675.63;;;20.46;76.81
71970;BME280;59838;52.152;5.436;2023-07-13T09:07:34;101683.16;;;20.19;78.21
71970;BME280;59838;52.152;5.436;2023-07-13T09:12:57;101663.25;;;19.74;81.54
71970;BME280;59838;52.152;5.436;2023-07-13T09:15:31;101663.34;;;19.67;82.89
71970;BME280;59838;52.152;5.436;2023-07-13T09:18:07;101671.59;;;19.71;84.09
71970;BME280;59838;52.152;5.436;2023-07-13T09:20:41;101672.72;;;19.63;83.64
71970;BME280;59838;52.152;5.436;2023-07-13T09:23:14;101669.34;;;19.75;85.79
71970;BME280;59838;52.152;5.436;2023-07-13T09:25:47;101662.63;;;19.90;84.41
71970;BME280;59838;52.152;5.436;2023-07-13T09:28:20;101671.94;;;19.93;84.69
71970;BME280;59838;52.152;5.436;2023-07-13T09:31:04;101676.78;;;19.96;84.75
71970;BME280;59838;52.152;5.436;2023-07-13T09:33:32;101672.94;;;20.34;85.11
71970;BME280;59838;52.152;5.436;2023-07-13T09:35:59;101669.19;;;20.54;84.37
71970;BME280;59838;52.152;5.436;2023-07-13T09:38:29;101670.81;;;20.90;83.97
71970;BME280;59838;52.152;5.436;2023-07-13T09:41:19;101673.50;;;21.31;81.80
71970;BME280;59838;52.152;5.436;2023-07-13T09:44:12;101669.06;;;21.89;80.54
71970;BME280;59838;52.152;5.436;2023-07-13T09:46:45;101681.16;;;21.85;79.81
71970;BME280;59838;52.152;5.436;2023-07-13T09:49:12;101675.56;;;21.41;78.23
71970;BME280;59838;52.152;5.436;2023-07-13T09:51:42;101690.94;;;20.91;79.95
71970;BME280;59838;52.152;5.436;2023-07-13T09:54:23;101705.09;;;20.43;80.55
71970;BME280;59838;52.152;5.436;2023-07-13T09:56:58;101722.53;;;20.02;82.55
71970;BME280;59838;52.152;5.436;2023-07-13T09:59:33;101725.22;;;19.65;86.72
71970;BME280;59838;52.152;5.436;2023-07-13T10:02:01;101722.50;;;19.16;86.47
71970;BME280;59838;52.152;5.436;2023-07-13T10:04:33;101714.00;;;18.95;88.04
71970;BME280;59838;52.152;5.436;2023-07-13T10:07:08;101715.00;;;18.94;89.08
71970;BME280;59838;52.152;5.436;2023-07-13T10:09:53;101719.84;;;19.16;90.92
71970;BME280;59838;52.152;5.436;2023-07-13T10:12:22;101721.91;;;19.69;89.19
71970;BME280;59838;52.152;5.436;2023-07-13T10:14:56;101710.19;;;20.14;89.43
71970;BME280;59838;52.152;5.436;2023-07-13T10:17:44;101698.38;;;20.59;89.56
71970;BME280;59838;52.152;5.436;2023-07-13T10:20:11;101708.63;;;20.67;86.71
71970;BME280;59838;52.152;5.436;2023-07-13T10:22:52;101721.19;;;20.53;84.63
71970;BME280;59838;52.152;5.436;2023-07-13T10:25:24;101721.28;;;20.35;86.36
71970;BME280;59838;52.152;5.436;2023-07-13T10:27:58;101719.44;;;20.35;88.29
71970;BME280;59838;52.152;5.436;2023-07-13T10:30:35;101717.34;;;20.25;87.54
71970;BME280;59838;52.152;5.436;2023-07-13T10:33:10;101716.91;;;20.52;88.56
71970;BME280;59838;52.152;5.436;2023-07-13T10:35:41;101710.91;;;21.11;90.35
71970;BME280;59838;52.152;5.436;2023-07-13T10:38:19;101702.34;;;21.56;90.49
71970;BME280;59838;52.152;5.436;2023-07-13T10:41:05;101719.50;;;21.70;84.91
71970;BME280;59838;52.152;5.436;2023-07-13T10:43:36;101711.31;;;21.31;85.41
71970;BME280;59838;52.152;5.436;2023-07-13T10:46:11;101719.41;;;21.01;85.88
71970;BME280;59838;52.152;5.436;2023-07-13T10:48:40;101728.00;;;20.73;85.95
71970;BME280;59838;52.152;5.436;2023-07-13T10:51:09;101724.56;;;20.72;86.37
71970;BME280;59838;52.152;5.436;2023-07-13T10:53:38;101726.28;;;20.90;85.20
71970;BME280;59838;52.152;5.436;2023-07-13T10:56:29;101719.25;;;21.31;84.23
71970;BME280;59838;52.152;5.436;2023-07-13T10:59:14;101726.03;;;21.80;83.70
71970;BME280;59838;52.152;5.436;2023-07-13T11:01:57;101721.13;;;22.00;77.39
71970;BME280;59838;52.152;5.436;2023-07-13T11:04:26;101720.06;;;22.30;81.93
71970;BME280;59838;52.152;5.436;2023-07-13T11:06:58;101724.34;;;22.65;79.66
71970;BME280;59838;52.152;5.436;2023-07-13T11:09:39;101739.66;;;22.97;79.99
71970;BME280;59838;52.152;5.436;2023-07-13T11:20:09;101737.66;;;23.48;72.02
71970;BME280;59838;52.152;5.436;2023-07-13T11:22:47;101740.06;;;23.72;70.96
71970;BME280;59838;52.152;5.436;2023-07-13T11:25:25;101742.59;;;24.11;70.50
71970;BME280;59838;52.152;5.436;2023-07-13T11:33:29;101725.38;;;24.78;65.05
71970;BME280;59838;52.152;5.436;2023-07-13T11:38:41;101729.00;;;23.80;67.17
71970;BME280;59838;52.152;5.436;2023-07-13T11:41:21;101744.38;;;23.12;71.31
71970;BME280;59838;52.152;5.436;2023-07-13T11:43:53;101752.19;;;22.34;76.32
71970;BME280;59838;52.152;5.436;2023-07-13T11:46:22;101758.34;;;22.10;76.63
71970;BME280;59838;52.152;5.436;2023-07-13T11:48:50;101764.41;;;22.23;79.40
71970;BME280;59838;52.152;5.436;2023-07-13T11:51:22;101759.63;;;22.37;78.31
71970;BME280;59838;52.152;5.436;2023-07-13T11:53:50;101759.78;;;22.30;78.21
71970;BME280;59838;52.152;5.436;2023-07-13T11:56:19;101763.13;;;21.97;78.62
71970;BME280;59838;52.152;5.436;2023-07-13T11:58:51;101757.31;;;21.83;79.24
71970;BME280;59838;52.152;5.436;2023-07-13T12:01:22;101761.06;;;21.58;75.66
71970;BME280;59838;52.152;5.436;2023-07-13T12:03:50;101756.00;;;21.33;80.01
71970;BME280;59838;52.152;5.436;2023-07-13T12:06:32;101761.66;;;21.13;80.89
71970;BME280;59838;52.152;5.436;2023-07-13T12:09:01;101753.75;;;21.01;79.95
71970;BME280;59838;52.152;5.436;2023-07-13T12:11:30;101757.66;;;20.98;82.73
71970;BME280;59838;52.152;5.436;2023-07-13T12:14:01;101761.44;;;21.03;84.92
71970;BME280;59838;52.152;5.436;2023-07-13T12:16:34;101761.56;;;21.08;80.80
71970;BME280;59838;52.152;5.436;2023-07-13T12:19:02;101759.25;;;21.23;84.59
71970;BME280;59838;52.152;5.436;2023-07-13T12:21:34;101760.38;;;21.51;85.25
71970;BME280;59838;52.152;5.436;2023-07-13T12:24:01;101760.59;;;21.61;83.15
71970;BME280;59838;52.152;5.436;2023-07-13T12:26:31;101764.19;;;21.55;82.59
71970;BME280;59838;52.152;5.436;2023-07-13T12:29:01;101763.25;;;21.49;84.29
71970;BME280;59838;52.152;5.436;2023-07-13T12:31:37;101762.88;;;21.46;82.76
71970;BME280;59838;52.152;5.436;2023-07-13T12:36:47;101764.91;;;21.79;80.66
71970;BME280;59838;52.152;5.436;2023-07-13T12:39:24;101754.56;;;21.78;81.96
71970;BME280;59838;52.152;5.436;2023-07-13T12:41:52;101752.56;;;21.97;77.59
71970;BME280;59838;52.152;5.436;2023-07-13T12:44:28;101747.13;;;22.49;79.08
71970;BME280;59838;52.152;5.436;2023-07-13T12:46:58;101746.88;;;22.85;77.95
71970;BME280;59838;52.152;5.436;2023-07-13T12:49:29;101744.75;;;23.21;74.74
71970;BME280;59838;52.152;5.436;2023-07-13T12:51:58;101750.56;;;23.00;75.37
71970;BME280;59838;52.152;5.436;2023-07-13T12:54:26;101746.09;;;22.50;71.81
71970;BME280;59838;52.152;5.436;2023-07-13T12:56:54;101756.47;;;22.23;75.28
71970;BME280;59838;52.152;5.436;2023-07-13T12:59:25;101757.16;;;22.64;74.94
71970;BME280;59838;52.152;5.436;2023-07-13T13:01:55;101746.72;;;23.08;68.50
71970;BME280;59838;52.152;5.436;2023-07-13T13:04:22;101744.31;;;23.29;67.94
71970;BME280;59838;52.152;5.436;2023-07-13T13:07:01;101746.28;;;22.99;69.66
71970;BME280;59838;52.152;5.436;2023-07-13T13:09:28;101743.03;;;22.58;67.72
71970;BME280;59838;52.152;5.436;2023-07-13T13:11:54;101748.47;;;22.35;69.13
71970;BME280;59838;52.152;5.436;2023-07-13T13:14:21;101760.03;;;22.45;70.10
71970;BME280;59838;52.152;5.436;2023-07-13T13:16:49;101751.63;;;22.82;65.84
71970;BME280;59838;52.152;5.436;2023-07-13T13:19:19;101758.22;;;22.63;66.35
71970;BME280;59838;52.152;5.436;2023-07-13T13:21:48;101753.13;;;22.78;62.89
71970;BME280;59838;52.152;5.436;2023-07-13T13:24:21;101756.50;;;23.08;64.92
71970;BME280;59838;52.152;5.436;2023-07-13T13:26:50;101759.53;;;22.99;66.56
71970;BME280;59838;52.152;5.436;2023-07-13T13:29:19;101759.41;;;22.72;67.28